sensor_id;sensor_type;location;lat;lon;timestamp;pressure;altitude;pressure_sealevel;temperature;humidity
22047;BME280;11187;49.412;20.956;2023-02-12T00:02:33;95966.56;;;1.10;100.00
22047;BME280;11187;49.412;20.956;2023-02-12T00:05:20;95956.63;;;1.14;100.00
22047;BME280;11187;49.412;20.956;2023-02-12T00:07:53;95949.97;;;1.16;100.00
22047;BME280;11187;49.412;20.956;2023-02-12T00:10:47;95972.69;;;1.18;100.00
22047;BME280;11187;49.412;20.956;2023-02-12T00:13:41;95973.47;;;1.15;100.00
22047;BME280;11187;49.412;20.956;2023-02-12T00:16:16;95971.84;;;1.17;100.00
22047;BME280;11187;49.412;20.956;2023-02-12T00:19:11;95982.00;;;1.19;100.00
22047;BME280;11187;49.412;20.956;2023-02-12T00:22:05;95983.59;;;1.17;100.00
22047;BME280;11187;49.412;20.956;2023-02-12T00:24:38;95978.56;;;1.17;100.00
22047;BME280;11187;49.412;20.956;2023-02-12T00:27:25;95983.53;;;1.15;100.00
22047;BME280;11187;49.412;20.956;2023-02-12T00:29:58;95989.44;;;1.16;100.00
22047;BME280;11187;49.412;20.956;2023-02-12T00:32:45;95991.09;;;1.14;100.00
22047;BME280;11187;49.412;20.956;2023-02-12T00:35:21;95979.41;;;1.17;100.00
22047;BME280;11187;49.412;20.956;2023-02-12T00:38:08;95991.09;;;1.14;100.00
22047;BME280;11187;49.412;20.956;2023-02-12T00:40:41;95991.22;;;1.18;100.00
22047;BME280;11187;49.412;20.956;2023-02-12T00:43:35;95985.44;;;1.22;100.00
22047;BME280;11187;49.412;20.956;2023-02-12T00:46:29;95988.94;;;1.26;100.00
22047;BME280;11187;49.412;20.956;2023-02-12T00:49:23;95993.97;;;1.26;100.00
22047;BME280;11187;49.412;20.956;2023-02-12T00:52:20;95984.81;;;1.28;100.00
22047;BME280;11187;49.412;20.956;2023-02-12T00:55:14;95984.09;;;1.32;100.00
22047;BME280;11187;49.412;20.956;2023-02-12T00:57:47;95990.00;;;1.33;100.00
22047;BME280;11187;49.412;20.956;2023-02-12T01:00:34;95986.56;;;1.31;100.00
22047;BME280;11187;49.412;20.956;2023-02-12T01:03:09;95993.31;;;1.32;100.00
22047;BME280;11187;49.412;20.956;2023-02-12T01:05:56;95977.31;;;1.31;100.00
22047;BME280;11187;49.412;20.956;2023-02-12T01:08:29;95982.41;;;1.33;100.00
22047;BME280;11187;49.412;20.956;2023-02-12T01:11:16;95980.69;;;1.32;100.00
22047;BME280;11187;49.412;20.956;2023-02-12T01:13:49;95988.25;;;1.32;100.00
22047;BME280;11187;49.412;20.956;2023-02-12T01:16:36;95972.28;;;1.31;100.00
22047;BME280;11187;49.412;20.956;2023-02-12T01:19:10;95972.31;;;1.33;100.00
22047;BME280;11187;49.412;20.956;2023-02-12T01:21:57;95969.81;;;1.33;100.00
22047;BME280;11187;49.412;20.956;2023-02-12T01:24:30;95975.69;;;1.33;100.00
22047;BME280;11187;49.412;20.956;2023-02-12T01:27:17;95984.03;;;1.31;100.00
22047;BME280;11187;49.412;20.956;2023-02-12T01:29:50;95979.84;;;1.31;100.00
22047;BME280;11187;49.412;20.956;2023-02-12T01:32:37;95982.34;;;1.30;100.00
22047;BME280;11187;49.412;20.956;2023-02-12T01:35:10;95984.19;;;1.35;100.00
22047;BME280;11187;49.412;20.956;2023-02-12T01:37:57;95990.91;;;1.35;100.00
22047;BME280;11187;49.412;20.956;2023-02-12T01:40:30;95994.22;;;1.34;100.00
22047;BME280;11187;49.412;20.956;2023-02-12T01:43:17;95987.53;;;1.34;100.00
22047;BME280;11187;49.412;20.956;2023-02-12T01:45:50;95989.16;;;1.34;100.00
22047;BME280;11187;49.412;20.956;2023-02-12T01:48:42;95996.88;;;1.38;100.00
22047;BME280;11187;49.412;20.956;2023-02-12T01:51:19;95992.72;;;1.39;100.00
22047;BME280;11187;49.412;20.956;2023-02-12T01:54:09;95998.53;;;1.36;100.00
22047;BME280;11187;49.412;20.956;2023-02-12T01:56:43;96010.31;;;1.37;100.00
22047;BME280;11187;49.412;20.956;2023-02-12T01:59:39;96014.38;;;1.34;100.00
22047;BME280;11187;49.412;20.956;2023-02-12T02:02:15;96016.06;;;1.33;100.00
22047;BME280;11187;49.412;20.956;2023-02-12T02:05:11;96016.00;;;1.32;100.00
22047;BME280;11187;49.412;20.956;2023-02-12T02:07:46;96020.19;;;1.31;100.00
22047;BME280;11187;49.412;20.956;2023-02-12T02:10:40;96014.44;;;1.35;100.00
22047;BME280;11187;49.412;20.956;2023-02-12T02:13:34;96019.50;;;1.35;100.00
22047;BME280;11187;49.412;20.956;2023-02-12T02:16:27;96028.78;;;1.36;100.00
22047;BME280;11187;49.412;20.956;2023-02-12T02:31:45;96032.47;;;1.46;100.00
22047;BME280;11187;49.412;20.956;2023-02-12T02:34:40;96029.94;;;1.46;100.00
22047;BME280;11187;49.412;20.956;2023-02-12T02:37:26;96037.59;;;1.49;100.00
22047;BME280;11187;49.412;20.956;2023-02-12T02:40:25;96038.41;;;1.48;100.00
22047;BME280;11187;49.412;20.956;2023-02-12T02:43:21;96046.84;;;1.49;100.00
22047;BME280;11187;49.412;20.956;2023-02-12T02:46:42;96061.97;;;1.49;100.00
22047;BME280;11187;49.412;20.956;2023-02-12T02:49:43;96061.06;;;1.46;100.00
22047;BME280;11187;49.412;20.956;2023-02-12T02:52:23;96072.72;;;1.43;100.00
22047;BME280;11187;49.412;20.956;2023-02-12T02:55:16;96071.91;;;1.44;100.00
22047;BME280;11187;49.412;20.956;2023-02-12T02:57:56;96072.84;;;1.48;100.00
22047;BME280;11187;49.412;20.956;2023-02-12T03:00:49;96071.22;;;1.48;100.00
22047;BME280;11187;49.412;20.956;2023-02-12T03:03:57;96070.34;;;1.48;100.00
22047;BME280;11187;49.412;20.956;2023-02-12T03:07:30;96081.25;;;1.46;100.00
22047;BME280;11187;49.412;20.956;2023-02-12T03:09:53;96084.53;;;1.44;100.00
22047;BME280;11187;49.412;20.956;2023-02-12T03:12:37;96083.63;;;1.42;100.00
22047;BME280;11187;49.412;20.956;2023-02-12T03:15:38;96093.78;;;1.43;100.00
22047;BME280;11187;49.412;20.956;2023-02-12T03:18:21;96095.41;;;1.43;100.00
22047;BME280;11187;49.412;20.956;2023-02-12T03:21:23;96094.63;;;1.44;100.00
22047;BME280;11187;49.412;20.956;2023-02-12T03:24:10;96111.44;;;1.43;100.00
22047;BME280;11187;49.412;20.956;2023-02-12T03:29:45;96109.53;;;1.36;100.00
22047;BME280;11187;49.412;20.956;2023-02-12T03:33:05;96120.34;;;1.34;100.00
22047;BME280;11187;49.412;20.956;2023-02-12T03:35:57;96129.72;;;1.36;100.00
22047;BME280;11187;49.412;20.956;2023-02-12T03:38:54;96125.38;;;1.32;100.00
22047;BME280;11187;49.412;20.956;2023-02-12T03:45:37;96142.19;;;1.33;100.00
22047;BME280;11187;49.412;20.956;2023-02-12T03:50:55;96144.84;;;1.36;100.00
22047;BME280;11187;49.412;20.956;2023-02-12T03:53:43;96139.75;;;1.35;100.00
22047;BME280;11187;49.412;20.956;2023-02-12T03:56:33;96148.22;;;1.37;100.00
22047;BME280;11187;49.412;20.956;2023-02-12T03:59:29;96150.69;;;1.35;100.00
22047;BME280;11187;49.412;20.956;2023-02-12T04:02:23;96159.00;;;1.33;100.00
22047;BME280;11187;49.412;20.956;2023-02-12T04:05:24;96169.00;;;1.30;100.00
22047;BME280;11187;49.412;20.956;2023-02-12T04:08:18;96171.53;;;1.30;100.00
22047;BME280;11187;49.412;20.956;2023-02-12T04:11:11;96165.59;;;1.29;100.00
22047;BME280;11187;49.412;20.956;2023-02-12T04:35:04;96209.16;;;1.23;100.00
22047;BME280;11187;49.412;20.956;2023-02-12T04:37:47;96209.91;;;1.21;100.00
22047;BME280;11187;49.412;20.956;2023-02-12T04:40:43;96215.66;;;1.17;100.00
22047;BME280;11187;49.412;20.956;2023-02-12T04:43:30;96218.00;;;1.12;100.00
22047;BME280;11187;49.412;20.956;2023-02-12T04:46:25;96221.38;;;1.13;100.00
22047;BME280;11187;49.412;20.956;2023-02-12T04:49:20;96220.47;;;1.11;100.00
22047;BME280;11187;49.412;20.956;2023-02-12T04:51:53;96226.31;;;1.10;100.00
22047;BME280;11187;49.412;20.956;2023-02-12T04:54:40;96238.94;;;1.10;100.00
22047;BME280;11187;49.412;20.956;2023-02-12T04:57:13;96238.13;;;1.11;100.00
22047;BME280;11187;49.412;20.956;2023-02-12T05:00:00;96254.06;;;1.10;100.00
22047;BME280;11187;49.412;20.956;2023-02-12T05:02:33;96266.66;;;1.10;100.00
22047;BME280;11187;49.412;20.956;2023-02-12T05:05:20;96254.91;;;1.10;100.00
22047;BME280;11187;49.412;20.956;2023-02-12T05:07:53;96260.72;;;1.08;100.00
22047;BME280;11187;49.412;20.956;2023-02-12T05:10:40;96277.50;;;1.07;100.00
22047;BME280;11187;49.412;20.956;2023-02-12T05:13:13;96267.28;;;1.04;100.00
22047;BME280;11187;49.412;20.956;2023-02-12T05:16:04;96267.28;;;1.04;100.00
22047;BME280;11187;49.412;20.956;2023-02-12T05:18:37;96278.25;;;1.04;100.00
22047;BME280;11187;49.412;20.956;2023-02-12T05:21:24;96280.59;;;1.00;100.00
22047;BME280;11187;49.412;20.956;2023-02-12T05:23:57;96291.56;;;1.00;100.00
22047;BME280;11187;49.412;20.956;2023-02-12T05:26:44;96295.00;;;1.02;100.00
22047;BME280;11187;49.412;20.956;2023-02-12T05:29:17;96285.69;;;1.01;100.00
22047;BME280;11187;49.412;20.956;2023-02-12T05:32:04;96289.13;;;1.03;100.00
22047;BME280;11187;49.412;20.956;2023-02-12T05:34:38;96290.00;;;1.04;100.00
22047;BME280;11187;49.412;20.956;2023-02-12T05:37:25;96284.91;;;1.02;100.00
22047;BME280;11187;49.412;20.956;2023-02-12T05:40:04;96297.63;;;1.06;100.00
22047;BME280;11187;49.412;20.956;2023-02-12T05:42:51;96301.81;;;1.05;100.00
22047;BME280;11187;49.412;20.956;2023-02-12T05:45:24;96310.97;;;1.03;100.00
22047;BME280;11187;49.412;20.956;2023-02-12T05:48:18;96310.97;;;1.03;100.00
22047;BME280;11187;49.412;20.956;2023-02-12T05:51:18;96331.25;;;1.06;100.00
22047;BME280;11187;49.412;20.956;2023-02-12T05:54:12;96338.03;;;1.07;100.00
22047;BME280;11187;49.412;20.956;2023-02-12T05:57:06;96343.00;;;1.06;100.00
22047;BME280;11187;49.412;20.956;2023-02-12T05:59:39;96344.69;;;1.05;100.00
22047;BME280;11187;49.412;20.956;2023-02-12T06:02:34;96355.63;;;1.06;100.00
22047;BME280;11187;49.412;20.956;2023-02-12T06:05:28;96354.94;;;1.10;100.00
22047;BME280;11187;49.412;20.956;2023-02-12T06:08:01;96357.31;;;1.07;100.00
22047;BME280;11187;49.412;20.956;2023-02-12T06:10:58;96362.25;;;1.03;100.00
22047;BME280;11187;49.412;20.956;2023-02-12T06:13:52;96360.59;;;1.04;100.00
22047;BME280;11187;49.412;20.956;2023-02-12T06:16:53;96363.00;;;1.01;100.00
22047;BME280;11187;49.412;20.956;2023-02-12T06:19:26;96363.78;;;1.00;100.00
22047;BME280;11187;49.412;20.956;2023-02-12T06:22:13;96366.31;;;1.00;100.00
22047;BME280;11187;49.412;20.956;2023-02-12T06:24:46;96367.13;;;0.99;100.00
22047;BME280;11187;49.412;20.956;2023-02-12T06:27:40;96381.44;;;1.00;100.00
22047;BME280;11187;49.412;20.956;2023-02-12T06:30:14;96381.41;;;0.98;100.00
22047;BME280;11187;49.412;20.956;2023-02-12T06:33:01;96400.09;;;1.03;100.00
22047;BME280;11187;49.412;20.956;2023-02-12T06:35:35;96387.38;;;1.00;100.00
22047;BME280;11187;49.412;20.956;2023-02-12T06:38:29;96394.88;;;0.99;100.00
22047;BME280;11187;49.412;20.956;2023-02-12T06:41:23;96405.06;;;1.02;100.00
22047;BME280;11187;49.412;20.956;2023-02-12T06:43:56;96405.06;;;1.02;100.00
22047;BME280;11187;49.412;20.956;2023-02-12T06:46:43;96406.81;;;1.03;100.00
22047;BME280;11187;49.412;20.956;2023-02-12T06:49:16;96415.28;;;1.05;100.00
22047;BME280;11187;49.412;20.956;2023-02-12T06:52:03;96418.66;;;1.06;100.00
22047;BME280;11187;49.412;20.956;2023-02-12T06:54:37;96417.00;;;1.06;100.00
22047;BME280;11187;49.412;20.956;2023-02-12T06:57:23;96428.81;;;1.07;100.00
22047;BME280;11187;49.412;20.956;2023-02-12T06:59:56;96435.66;;;1.10;100.00
22047;BME280;11187;49.412;20.956;2023-02-12T07:02:43;96447.34;;;1.08;100.00
22047;BME280;11187;49.412;20.956;2023-02-12T07:05:16;96454.97;;;1.09;100.00
22047;BME280;11187;49.412;20.956;2023-02-12T07:08:10;96459.75;;;1.03;100.00
22047;BME280;11187;49.412;20.956;2023-02-12T07:11:04;96455.56;;;1.03;100.00
22047;BME280;11187;49.412;20.956;2023-02-12T07:13:58;96455.00;;;1.11;100.00
22047;BME280;11187;49.412;20.956;2023-02-12T07:16:31;96460.19;;;1.14;100.00
22047;BME280;11187;49.412;20.956;2023-02-12T07:19:25;96478.03;;;1.18;100.00
22047;BME280;11187;49.412;20.956;2023-02-12T07:21:58;96472.09;;;1.18;100.00
22047;BME280;11187;49.412;20.956;2023-02-12T07:24:45;96477.16;;;1.18;100.00
22047;BME280;11187;49.412;20.956;2023-02-12T07:27:18;96476.22;;;1.16;100.00
22047;BME280;11187;49.412;20.956;2023-02-12T07:30:12;96480.56;;;1.18;100.00
22047;BME280;11187;49.412;20.956;2023-02-12T07:32:45;96486.56;;;1.22;100.00
22047;BME280;11187;49.412;20.956;2023-02-12T07:35:32;96494.31;;;1.27;100.00
22047;BME280;11187;49.412;20.956;2023-02-12T07:38:05;96496.09;;;1.29;100.00
22047;BME280;11187;49.412;20.956;2023-02-12T07:40:52;96492.66;;;1.27;100.00
22047;BME280;11187;49.412;20.956;2023-02-12T07:43:25;96496.06;;;1.28;100.00
22047;BME280;11187;49.412;20.956;2023-02-12T07:46:18;96497.16;;;1.34;100.00
22047;BME280;11187;49.412;20.956;2023-02-12T07:49:20;96494.56;;;1.33;100.00
22047;BME280;11187;49.412;20.956;2023-02-12T07:52:14;96491.38;;;1.37;100.00
22047;BME280;11187;49.412;20.956;2023-02-12T07:55:08;96493.06;;;1.38;100.00
22047;BME280;11187;49.412;20.956;2023-02-12T07:57:41;96488.84;;;1.37;100.00
22047;BME280;11187;49.412;20.956;2023-02-12T08:00:28;96491.22;;;1.34;100.00
22047;BME280;11187;49.412;20.956;2023-02-12T08:03:01;96488.72;;;1.34;100.00
22047;BME280;11187;49.412;20.956;2023-02-12T08:05:55;96502.44;;;1.40;100.00
22047;BME280;11187;49.412;20.956;2023-02-12T08:08:28;96506.06;;;1.47;100.00
22047;BME280;11187;49.412;20.956;2023-02-12T08:11:17;96506.91;;;1.48;100.00
22047;BME280;11187;49.412;20.956;2023-02-12T08:13:51;96501.19;;;1.52;100.00
22047;BME280;11187;49.412;20.956;2023-02-12T08:16:46;96507.56;;;1.64;100.00
22047;BME280;11187;49.412;20.956;2023-02-12T08:19:20;96511.06;;;1.68;100.00
22047;BME280;11187;49.412;20.956;2023-02-12T08:22:14;96512.56;;;1.63;100.00
22047;BME280;11187;49.412;20.956;2023-02-12T08:25:08;96518.91;;;1.53;100.00
22047;BME280;11187;49.412;20.956;2023-02-12T08:27:44;96519.66;;;1.51;100.00
22047;BME280;11187;49.412;20.956;2023-02-12T08:30:31;96522.22;;;1.52;100.00
22047;BME280;11187;49.412;20.956;2023-02-12T08:33:04;96519.78;;;1.54;100.00
22047;BME280;11187;49.412;20.956;2023-02-12T08:36:20;96528.00;;;1.71;100.00
22047;BME280;11187;49.412;20.956;2023-02-12T08:39:15;96521.38;;;1.73;100.00
22047;BME280;11187;49.412;20.956;2023-02-12T08:41:49;96528.13;;;1.74;100.00
22047;BME280;11187;49.412;20.956;2023-02-12T08:44:43;96530.88;;;1.80;100.00
22047;BME280;11187;49.412;20.956;2023-02-12T08:47:37;96536.97;;;1.85;100.00
22047;BME280;11187;49.412;20.956;2023-02-12T08:50:33;96537.47;;;1.76;100.00
22047;BME280;11187;49.412;20.956;2023-02-12T08:53:05;96535.88;;;1.78;100.00
22047;BME280;11187;49.412;20.956;2023-02-12T08:55:59;96540.84;;;1.77;100.00
22047;BME280;11187;49.412;20.956;2023-02-12T08:58:53;96545.91;;;1.77;100.00
22047;BME280;11187;49.412;20.956;2023-02-12T09:01:29;96554.88;;;1.91;100.00
22047;BME280;11187;49.412;20.956;2023-02-12T09:04:24;96560.47;;;2.05;100.00
22047;BME280;11187;49.412;20.956;2023-02-12T09:06:57;96571.25;;;2.01;100.00
22047;BME280;11187;49.412;20.956;2023-02-12T09:09:51;96577.16;;;2.01;100.00
22047;BME280;11187;49.412;20.956;2023-02-12T09:12:45;96579.16;;;2.10;100.00
22047;BME280;11187;49.412;20.956;2023-02-12T09:15:18;96584.13;;;2.07;100.00
22047;BME280;11187;49.412;20.956;2023-02-12T09:18:05;96589.94;;;2.06;100.00
22047;BME280;11187;49.412;20.956;2023-02-12T09:20:41;96596.03;;;2.11;100.00
22047;BME280;11187;49.412;20.956;2023-02-12T09:23:28;96601.16;;;2.13;100.00
22047;BME280;11187;49.412;20.956;2023-02-12T09:26:06;96609.47;;;2.10;99.95
22047;BME280;11187;49.412;20.956;2023-02-12T09:28:54;96618.06;;;2.14;99.93
22047;BME280;11187;49.412;20.956;2023-02-12T09:31:29;96625.81;;;2.41;100.00
22047;BME280;11187;49.412;20.956;2023-02-12T09:34:16;96626.16;;;2.50;99.25
22047;BME280;11187;49.412;20.956;2023-02-12T09:36:52;96624.94;;;2.40;99.24
22047;BME280;11187;49.412;20.956;2023-02-12T09:39:46;96629.53;;;2.28;99.75
22047;BME280;11187;49.412;20.956;2023-02-12T09:45:21;96629.41;;;2.02;97.59
22047;BME280;11187;49.412;20.956;2023-02-12T09:51:02;96647.03;;;2.01;99.06
22047;BME280;11187;49.412;20.956;2023-02-12T09:53:42;96645.44;;;1.82;97.60
22047;BME280;11187;49.412;20.956;2023-02-12T09:56:37;96652.75;;;1.76;96.84
22047;BME280;11187;49.412;20.956;2023-02-12T09:59:35;96643.53;;;1.76;96.25
22047;BME280;11187;49.412;20.956;2023-02-12T10:02:15;96652.16;;;2.02;97.83
22047;BME280;11187;49.412;20.956;2023-02-12T10:05:03;96648.00;;;2.04;97.17
22047;BME280;11187;49.412;20.956;2023-02-12T10:10:52;96652.44;;;2.10;95.12
22047;BME280;11187;49.412;20.956;2023-02-12T10:22:42;96662.44;;;2.07;94.05
22047;BME280;11187;49.412;20.956;2023-02-12T10:25:53;96658.22;;;2.07;94.39
22047;BME280;11187;49.412;20.956;2023-02-12T10:28:48;96656.06;;;2.17;94.54
22047;BME280;11187;49.412;20.956;2023-02-12T10:31:46;96661.91;;;2.16;94.40
22047;BME280;11187;49.412;20.956;2023-02-12T10:34:25;96663.88;;;2.23;94.88
22047;BME280;11187;49.412;20.956;2023-02-12T10:37:38;96657.00;;;2.41;95.29
22047;BME280;11187;49.412;20.956;2023-02-12T10:40:34;96665.50;;;2.21;92.13
22047;BME280;11187;49.412;20.956;2023-02-12T10:43:11;96658.97;;;2.05;94.24
22047;BME280;11187;49.412;20.956;2023-02-12T10:45:58;96665.28;;;1.94;94.18
22047;BME280;11187;49.412;20.956;2023-02-12T10:48:35;96667.31;;;2.02;95.21
22047;BME280;11187;49.412;20.956;2023-02-12T10:51:52;96673.69;;;2.15;95.59
22047;BME280;11187;49.412;20.956;2023-02-12T10:57:31;96668.91;;;2.44;94.65
22047;BME280;11187;49.412;20.956;2023-02-12T11:00:33;96661.38;;;2.45;95.08
22047;BME280;11187;49.412;20.956;2023-02-12T11:09:17;96668.81;;;2.42;93.84
22047;BME280;11187;49.412;20.956;2023-02-12T11:12:40;96667.91;;;2.63;93.75
22047;BME280;11187;49.412;20.956;2023-02-12T11:15:45;96669.69;;;2.65;93.78
22047;BME280;11187;49.412;20.956;2023-02-12T11:18:27;96675.28;;;2.57;94.50
22047;BME280;11187;49.412;20.956;2023-02-12T11:21:22;96672.50;;;2.50;94.60
22047;BME280;11187;49.412;20.956;2023-02-12T11:32:46;96692.91;;;2.55;93.63
22047;BME280;11187;49.412;20.956;2023-02-12T11:35:33;96697.03;;;2.53;94.57
22047;BME280;11187;49.412;20.956;2023-02-12T11:38:19;96697.28;;;2.59;95.27
22047;BME280;11187;49.412;20.956;2023-02-12T11:47:19;96700.16;;;2.68;95.06
22047;BME280;11187;49.412;20.956;2023-02-12T11:50:30;96689.06;;;2.65;94.07
22047;BME280;11187;49.412;20.956;2023-02-12T11:53:30;96690.56;;;2.60;94.68
22047;BME280;11187;49.412;20.956;2023-02-12T11:56:07;96689.16;;;2.68;94.88
22047;BME280;11187;49.412;20.956;2023-02-12T11:59:55;96691.69;;;2.68;94.45
22047;BME280;11187;49.412;20.956;2023-02-12T12:02:31;96699.25;;;2.66;93.21
22047;BME280;11187;49.412;20.956;2023-02-12T12:05:37;96696.13;;;2.51;91.68
22047;BME280;11187;49.412;20.956;2023-02-12T12:08:22;96684.06;;;2.44;92.58
22047;BME280;11187;49.412;20.956;2023-02-12T12:11:56;96691.66;;;2.44;94.03
22047;BME280;11187;49.412;20.956;2023-02-12T12:14:29;96696.94;;;2.50;93.92
22047;BME280;11187;49.412;20.956;2023-02-12T12:17:43;96699.66;;;2.55;94.11
22047;BME280;11187;49.412;20.956;2023-02-12T12:20:40;96711.38;;;2.53;93.13
22047;BME280;11187;49.412;20.956;2023-02-12T12:23:45;96709.69;;;2.53;94.12
22047;BME280;11187;49.412;20.956;2023-02-12T12:26:22;96702.09;;;2.53;93.65
22047;BME280;11187;49.412;20.956;2023-02-12T12:29:25;96708.94;;;2.56;93.57
22047;BME280;11187;49.412;20.956;2023-02-12T12:32:21;96702.03;;;2.51;92.17
22047;BME280;11187;49.412;20.956;2023-02-12T12:34:56;96696.13;;;2.51;93.40
22047;BME280;11187;49.412;20.956;2023-02-12T13:02:37;96681.19;;;2.57;92.67
22047;BME280;11187;49.412;20.956;2023-02-12T13:14:47;96680.88;;;2.27;93.01
22047;BME280;11187;49.412;20.956;2023-02-12T13:17:22;96692.53;;;2.23;92.90
22047;BME280;11187;49.412;20.956;2023-02-12T13:20:26;96689.34;;;2.27;93.60
22047;BME280;11187;49.412;20.956;2023-02-12T13:23:15;96694.69;;;2.35;93.71
22047;BME280;11187;49.412;20.956;2023-02-12T13:28:44;96697.84;;;2.08;92.98
22047;BME280;11187;49.412;20.956;2023-02-12T13:35:07;96702.97;;;1.89;93.27
22047;BME280;11187;49.412;20.956;2023-02-12T13:38:08;96706.22;;;1.86;94.22
22047;BME280;11187;49.412;20.956;2023-02-12T13:41:08;96709.44;;;1.82;94.35
22047;BME280;11187;49.412;20.956;2023-02-12T13:46:55;96705.66;;;1.73;95.30
22047;BME280;11187;49.412;20.956;2023-02-12T13:49:55;96712.25;;;1.69;95.53
22047;BME280;11187;49.412;20.956;2023-02-12T13:52:43;96709.47;;;1.63;95.63
22047;BME280;11187;49.412;20.956;2023-02-12T13:55:42;96707.75;;;1.62;95.86
22047;BME280;11187;49.412;20.956;2023-02-12T14:01:50;96714.75;;;1.48;96.25
22047;BME280;11187;49.412;20.956;2023-02-12T14:04:53;96720.53;;;1.45;96.59
22047;BME280;11187;49.412;20.956;2023-02-12T14:07:43;96722.03;;;1.42;96.64
22047;BME280;11187;49.412;20.956;2023-02-12T14:10:34;96727.75;;;1.38;96.58
22047;BME280;11187;49.412;20.956;2023-02-12T14:16:34;96726.56;;;1.30;96.62
22047;BME280;11187;49.412;20.956;2023-02-12T14:19:35;96734.84;;;1.27;96.71
22047;BME280;11187;49.412;20.956;2023-02-12T14:34:27;96734.72;;;1.04;97.17
22047;BME280;11187;49.412;20.956;2023-02-12T14:37:11;96739.78;;;1.04;97.90
22047;BME280;11187;49.412;20.956;2023-02-12T14:39:44;96742.41;;;1.08;97.88
22047;BME280;11187;49.412;20.956;2023-02-12T14:45:35;96723.19;;;1.10;98.42
22047;BME280;11187;49.412;20.956;2023-02-12T14:48:40;96729.06;;;1.10;98.18
22047;BME280;11187;49.412;20.956;2023-02-12T14:55:04;96732.91;;;1.02;98.02
22047;BME280;11187;49.412;20.956;2023-02-12T14:58:01;96729.44;;;1.00;98.09
22047;BME280;11187;49.412;20.956;2023-02-12T15:00:38;96734.38;;;0.97;98.10
22047;BME280;11187;49.412;20.956;2023-02-12T15:06:41;96728.06;;;0.87;98.20
22047;BME280;11187;49.412;20.956;2023-02-12T15:09:44;96724.53;;;0.83;98.65
22047;BME280;11187;49.412;20.956;2023-02-12T15:19:01;96735.06;;;0.75;99.46
22047;BME280;11187;49.412;20.956;2023-02-12T15:21:58;96734.84;;;0.70;99.63
22047;BME280;11187;49.412;20.956;2023-02-12T15:24:31;96739.03;;;0.70;99.50
22047;BME280;11187;49.412;20.956;2023-02-12T15:27:19;96744.16;;;0.71;99.71
22047;BME280;11187;49.412;20.956;2023-02-12T15:29:54;96733.06;;;0.68;99.75
22047;BME280;11187;49.412;20.956;2023-02-12T15:32:50;96736.38;;;0.67;100.00
22047;BME280;11187;49.412;20.956;2023-02-12T15:35:44;96736.22;;;0.63;100.00
22047;BME280;11187;49.412;20.956;2023-02-12T15:38:39;96747.09;;;0.62;100.00
22047;BME280;11187;49.412;20.956;2023-02-12T15:41:38;96755.31;;;0.58;100.00
22047;BME280;11187;49.412;20.956;2023-02-12T15:44:34;96750.22;;;0.57;100.00
22047;BME280;11187;49.412;20.956;2023-02-12T15:47:13;96759.19;;;0.52;100.00
22047;BME280;11187;49.412;20.956;2023-02-12T15:50:05;96757.31;;;0.48;100.00
22047;BME280;11187;49.412;20.956;2023-02-12T15:52:40;96755.59;;;0.47;100.00
22047;BME280;11187;49.412;20.956;2023-02-12T15:55:32;96756.41;;;0.46;100.00
22047;BME280;11187;49.412;20.956;2023-02-12T16:01:50;96756.19;;;0.41;100.00
22047;BME280;11187;49.412;20.956;2023-02-12T16:04:36;96755.06;;;0.34;100.00
22047;BME280;11187;49.412;20.956;2023-02-12T16:07:34;96771.75;;;0.32;100.00
22047;BME280;11187;49.412;20.956;2023-02-12T16:10:28;96774.91;;;0.28;100.00
22047;BME280;11187;49.412;20.956;2023-02-12T16:13:02;96770.41;;;0.23;100.00
22047;BME280;11187;49.412;20.956;2023-02-12T16:18:45;96776.66;;;0.13;100.00
22047;BME280;11187;49.412;20.956;2023-02-12T16:21:38;96777.31;;;0.09;100.00
22047;BME280;11187;49.412;20.956;2023-02-12T16:27:28;96783.63;;;0.01;100.00
22047;BME280;11187;49.412;20.956;2023-02-12T16:33:50;96789.00;;;-0.10;100.00
22047;BME280;11187;49.412;20.956;2023-02-12T16:36:45;96789.56;;;-0.15;100.00
22047;BME280;11187;49.412;20.956;2023-02-12T16:42:55;96788.09;;;-0.28;100.00
22047;BME280;11187;49.412;20.956;2023-02-12T16:45:49;96799.81;;;-0.29;100.00
22047;BME280;11187;49.412;20.956;2023-02-12T16:48:24;96795.31;;;-0.34;100.00
22047;BME280;11187;49.412;20.956;2023-02-12T16:51:26;96795.25;;;-0.36;100.00
22047;BME280;11187;49.412;20.956;2023-02-12T16:54:03;96801.06;;;-0.37;100.00
22047;BME280;11187;49.412;20.956;2023-02-12T16:56:58;96808.47;;;-0.40;100.00
22047;BME280;11187;49.412;20.956;2023-02-12T16:59:52;96809.94;;;-0.44;100.00
22047;BME280;11187;49.412;20.956;2023-02-12T17:02:26;96818.91;;;-0.49;100.00
22047;BME280;11187;49.412;20.956;2023-02-12T17:05:15;96817.81;;;-0.54;100.00
22047;BME280;11187;49.412;20.956;2023-02-12T17:07:50;96816.03;;;-0.56;100.00
22047;BME280;11187;49.412;20.956;2023-02-12T17:10:36;96817.59;;;-0.58;100.00
22047;BME280;11187;49.412;20.956;2023-02-12T17:13:10;96813.19;;;-0.63;100.00
22047;BME280;11187;49.412;20.956;2023-02-12T17:15:58;96813.03;;;-0.66;100.00
22047;BME280;11187;49.412;20.956;2023-02-12T17:18:38;96814.50;;;-0.69;100.00
22047;BME280;11187;49.412;20.956;2023-02-12T17:21:30;96811.84;;;-0.72;100.00
22047;BME280;11187;49.412;20.956;2023-02-12T17:24:17;96817.59;;;-0.75;100.00
22047;BME280;11187;49.412;20.956;2023-02-12T17:27:12;96808.19;;;-0.77;100.00
22047;BME280;11187;49.412;20.956;2023-02-12T17:30:07;96811.97;;;-0.86;100.00
22047;BME280;11187;49.412;20.956;2023-02-12T17:33:02;96812.75;;;-0.87;100.00
22047;BME280;11187;49.412;20.956;2023-02-12T17:35:37;96815.91;;;-0.91;100.00
22047;BME280;11187;49.412;20.956;2023-02-12T17:38:30;96814.97;;;-0.93;100.00
22047;BME280;11187;49.412;20.956;2023-02-12T17:41:24;96817.28;;;-0.96;100.00